Time;durP1;ratioP1;P1;durP2;ratioP2;P2;SDS_P1;SDS_P2;PMS_P1;PMS_P2;Temp;Humidity;BMP_temperature;BMP_pressure;BME280_temperature;BME280_humidity;BME280_pressure;Samples;Min_cycle;Max_cycle;Signal;HPM_P1;HPM_P2
2022/12/05 00:02:13;;;;;;;52.73;32.30;;;;;;;1.40;100.00;101572.78;5285942;28;20028;-75
2022/12/05 00:04:44;;;;;;;48.27;32.23;;;;;;;1.41;100.00;101576.22;5251338;28;20029;-76
2022/12/05 00:07:16;;;;;;;55.63;36.13;;;;;;;1.42;100.00;101578.84;5285846;28;20394;-75
2022/12/05 00:09:47;;;;;;;63.93;38.07;;;;;;;1.43;100.00;101580.63;5286131;28;20040;-76
2022/12/05 00:12:18;;;;;;;57.87;36.20;;;;;;;1.43;100.00;101587.44;5285963;28;20029;-75
2022/12/05 00:14:50;;;;;;;62.07;39.10;;;;;;;1.45;100.00;101590.97;5285591;28;20036;-75
2022/12/05 00:17:21;;;;;;;67.60;42.57;;;;;;;1.45;100.00;101586.69;5286810;28;20024;-75
2022/12/05 00:19:52;;;;;;;56.30;35.63;;;;;;;1.44;100.00;101587.50;5287320;28;20124;-76
2022/12/05 00:22:24;;;;;;;64.53;39.90;;;;;;;1.44;100.00;101590.06;5286525;28;20094;-75
2022/12/05 00:24:55;;;;;;;58.87;34.97;;;;;;;1.46;100.00;101587.53;5269804;28;20036;-75
2022/12/05 00:27:26;;;;;;;58.03;35.70;;;;;;;1.47;100.00;101588.44;5287176;28;20048;-75
2022/12/05 00:29:58;;;;;;;54.23;33.87;;;;;;;1.50;100.00;101585.97;5286741;28;20112;-76
2022/12/05 00:32:29;;;;;;;48.40;33.43;;;;;;;1.51;100.00;101580.00;5286654;28;20029;-75
2022/12/05 00:35:00;;;;;;;53.40;35.93;;;;;;;1.51;100.00;101580.00;5286046;28;20032;-76
2022/12/05 00:37:32;;;;;;;53.47;34.83;;;;;;;1.49;100.00;101576.53;5268354;28;20036;-76
2022/12/05 00:40:04;;;;;;;57.80;37.00;;;;;;;1.53;100.00;101570.66;5285597;28;20025;-75
2022/12/05 00:42:35;;;;;;;54.70;36.08;;;;;;;1.50;100.00;101567.97;5251346;28;20124;-75
2022/12/05 00:45:07;;;;;;;52.80;34.73;;;;;;;1.51;100.00;101573.16;5285173;28;20032;-76
2022/12/05 00:47:39;;;;;;;50.78;34.65;;;;;;;1.51;100.00;101565.47;5267111;28;20050;-76
2022/12/05 00:50:10;;;;;;;54.03;36.00;;;;;;;1.49;100.00;101571.38;5267023;28;20044;-75
2022/12/05 00:52:41;;;;;;;50.63;35.03;;;;;;;1.51;100.00;101570.59;5284815;28;20391;-76
2022/12/05 00:55:13;;;;;;;52.30;33.07;;;;;;;1.60;100.00;101568.38;5285137;28;20043;-76
2022/12/05 00:57:44;;;;;;;53.83;34.63;;;;;;;1.53;100.00;101569.00;5267386;28;20116;-75
2022/12/05 01:00:16;;;;;;;51.33;34.73;;;;;;;1.59;100.00;101576.03;5283661;28;20051;-76
2022/12/05 01:02:47;;;;;;;54.73;32.87;;;;;;;1.60;100.00;101572.66;5284239;28;20040;-76
2022/12/05 01:05:19;;;;;;;58.50;35.67;;;;;;;1.60;100.00;101577.78;5284673;28;20025;-75
2022/12/05 01:07:50;;;;;;;50.63;34.53;;;;;;;1.61;100.00;101575.28;5284873;28;20041;-76
2022/12/05 01:10:21;;;;;;;57.50;35.17;;;;;;;1.58;100.00;101576.88;5266894;28;20028;-74
2022/12/05 01:12:53;;;;;;;56.20;36.40;;;;;;;1.61;100.00;101585.56;5284937;28;20039;-75
2022/12/05 01:15:24;;;;;;;52.20;36.20;;;;;;;1.61;100.00;101582.09;5284545;28;20028;-75
2022/12/05 01:17:55;;;;;;;49.27;33.80;;;;;;;1.61;100.00;101587.22;5284312;28;20039;-75
2022/12/05 01:20:27;;;;;;;56.10;35.10;;;;;;;1.62;100.00;101587.28;5284289;28;20035;-75
2022/12/05 01:22:58;;;;;;;56.90;37.07;;;;;;;1.61;100.00;101587.22;5284106;28;20025;-76
2022/12/05 01:25:30;;;;;;;54.47;35.53;;;;;;;1.63;100.00;101588.19;5283877;28;20032;-75
2022/12/05 01:28:01;;;;;;;49.90;33.17;;;;;;;1.63;100.00;101599.34;5284167;28;20063;-75
2022/12/05 01:30:37;;;;;;;53.27;36.03;;;;;;;1.63;100.00;101595.91;5284686;28;20040;-76
2022/12/05 01:33:09;;;;;;;53.83;36.10;;;;;;;1.59;100.00;101600.03;5284023;28;20037;-76
2022/12/05 01:35:41;;;;;;;54.00;35.50;;;;;;;1.64;100.00;101592.47;5284291;28;20109;-75
2022/12/05 01:38:13;;;;;;;56.00;36.03;;;;;;;1.64;100.00;101590.81;5284030;28;20073;-76
2022/12/05 01:40:44;;;;;;;54.60;35.63;;;;;;;1.67;100.00;101594.31;5283918;28;20117;-76
2022/12/05 01:43:17;;;;;;;56.13;34.83;;;;;;;1.67;100.00;101599.44;5266123;28;20025;-76
2022/12/05 01:45:48;;;;;;;54.30;37.00;;;;;;;1.68;100.00;101598.63;5283897;28;20082;-76
2022/12/05 01:48:34;;;;;;;45.73;34.07;;;;;;;1.67;100.00;101613.16;5265425;28;20044;-76
2022/12/05 01:51:05;;;;;;;53.10;34.88;;;;;;;1.66;100.00;101606.28;5284091;28;20025;-76
2022/12/05 01:53:37;;;;;;;50.97;35.47;;;;;;;1.69;100.00;101606.41;5283709;28;20035;-76
2022/12/05 01:56:08;;;;;;;53.17;36.03;;;;;;;1.73;100.00;101612.53;5283616;28;20036;-76
2022/12/05 01:58:43;;;;;;;53.20;35.23;;;;;;;1.69;100.00;101611.56;5283684;28;20063;-76
2022/12/05 02:01:16;;;;;;;54.38;35.22;;;;;;;1.75;100.00;101608.31;5283505;28;20055;-75
2022/12/05 02:03:51;;;;;;;57.50;37.10;;;;;;;1.72;100.00;101610.75;5283515;28;20035;-76
2022/12/05 02:06:25;;;;;;;53.35;34.72;;;;;;;1.70;100.00;101608.13;5283165;28;20460;-75
2022/12/05 02:08:56;;;;;;;55.22;35.45;;;;;;;1.74;100.00;101614.25;5283358;28;20035;-76
2022/12/05 02:11:31;;;;;;;54.47;35.07;;;;;;;1.71;100.00;101614.19;5282906;28;20476;-75
2022/12/05 02:14:31;;;;;;;54.80;33.78;;;;;;;1.73;100.00;101620.25;5289997;28;20455;-75
2022/12/05 02:17:25;;;;;;;58.28;35.22;;;;;;;1.68;100.00;101619.19;5295341;28;20092;-74
2022/12/05 02:20:16;;;;;;;53.03;33.65;;;;;;;1.72;100.00;101616.78;5293508;28;20032;-74
2022/12/05 02:23:02;;;;;;;53.05;34.20;;;;;;;1.72;100.00;101616.78;5290364;28;20106;-75
2022/12/05 02:25:59;;;;;;;53.25;34.42;;;;;;;1.71;100.00;101612.47;5288781;28;20032;-75
2022/12/05 02:28:42;;;;;;;55.95;35.13;;;;;;;1.72;100.00;101606.50;5290587;28;20056;-75
2022/12/05 02:31:35;;;;;;;51.90;36.15;;;;;;;1.69;100.00;101608.06;5272510;28;20032;-75
2022/12/05 02:34:15;;;;;;;52.42;33.08;;;;;;;1.69;100.00;101606.41;5290522;28;20095;-75
2022/12/05 02:37:12;;;;;;;50.13;34.75;;;;;;;1.71;100.00;101606.47;5269996;28;20032;-74
2022/12/05 02:40:10;;;;;;;55.60;35.03;;;;;;;1.68;100.00;101609.78;5288345;28;20029;-74
2022/12/05 02:42:51;;;;;;;53.35;34.00;;;;;;;1.71;100.00;101603.91;5273643;28;20044;-75
2022/12/05 02:45:26;;;;;;;52.42;35.17;;;;;;;1.72;100.00;101601.34;5288743;28;20035;-74
2022/12/05 02:47:59;;;;;;;54.05;35.33;;;;;;;1.76;100.00;101604.94;5287254;28;20074;-74
2022/12/05 02:50:33;;;;;;;;;;;;;;;1.81;100.00;101605.97;5287676;28;20033;-75
2022/12/05 02:53:09;;;;;;;57.22;35.13;;;;;;;1.75;100.00;101608.31;5287375;28;19912;-75
2022/12/05 02:55:42;;;;;;;50.03;35.42;;;;;;;1.73;100.00;101607.38;5285857;28;20379;-76
2022/12/05 02:58:15;;;;;;;;;;;;;;;1.81;100.00;101611.97;5285274;28;20033;-75
2022/12/05 03:00:51;;;;;;;53.13;33.55;;;;;;;1.77;100.00;101607.56;5267322;28;19984;-75
2022/12/05 03:03:24;;;;;;;53.92;35.55;;;;;;;1.76;100.00;101618.66;5268820;28;20028;-75
2022/12/05 03:06:18;;;;;;;53.50;35.60;;;;;;;1.76;100.00;101613.50;5286346;28;20039;-75
2022/12/05 03:08:59;;;;;;;54.55;36.75;;;;;;;1.75;100.00;101616.03;5286562;28;20028;-74
2022/12/05 03:11:48;;;;;;;54.53;36.13;;;;;;;1.77;100.00;101616.94;5285813;28;20140;-75
2022/12/05 03:14:24;;;;;;;54.85;35.45;;;;;;;1.77;100.00;101614.38;5285051;28;20115;-75
2022/12/05 03:17:09;;;;;;;55.67;37.88;;;;;;;1.77;100.00;101619.50;5284029;28;20448;-75
2022/12/05 03:20:09;;;;;;;52.25;34.53;;;;;;;1.76;100.00;101607.50;5283951;28;20032;-75
2022/12/05 03:22:58;;;;;;;56.25;36.13;;;;;;;1.78;100.00;101606.72;5273138;28;20080;-75
2022/12/05 03:25:40;;;;;;;58.63;35.63;;;;;;;1.79;100.00;101608.47;5286568;28;20112;-75
2022/12/05 03:28:26;;;;;;;52.80;35.25;;;;;;;1.80;100.00;101605.09;5269390;28;20024;-75
2022/12/05 03:31:03;;;;;;;53.53;35.63;;;;;;;1.75;100.00;101604.03;5287258;28;20055;-75
2022/12/05 03:33:42;;;;;;;59.17;37.50;;;;;;;1.84;100.00;101602.66;5287320;28;20456;-75
2022/12/05 03:36:20;;;;;;;52.13;35.95;;;;;;;1.85;100.00;101607.81;5287165;28;20455;-74
2022/12/05 03:39:00;;;;;;;56.67;36.45;;;;;;;1.79;100.00;101603.34;5286566;28;20025;-75
2022/12/05 03:41:44;;;;;;;56.20;35.25;;;;;;;1.80;100.00;101604.19;5286485;28;20028;-74
2022/12/05 03:44:23;;;;;;;58.80;35.83;;;;;;;1.84;100.00;101605.22;5286774;28;20029;-74
2022/12/05 03:47:03;;;;;;;52.13;35.28;;;;;;;1.82;100.00;101608.59;5286254;28;20042;-74
2022/12/05 03:49:46;;;;;;;57.05;36.28;;;;;;;1.81;100.00;101600.81;5286129;28;20076;-73
2022/12/05 03:52:31;;;;;;;56.65;35.25;;;;;;;1.78;100.00;101598.13;5287025;28;20082;-74
2022/12/05 03:55:07;;;;;;;60.60;38.70;;;;;;;1.77;100.00;101598.94;5286764;28;20444;-74
2022/12/05 03:57:51;;;;;;;51.63;35.70;;;;;;;1.75;100.00;101601.47;5285568;28;20070;-74
2022/12/05 04:00:23;;;;;;;54.63;36.88;;;;;;;1.78;100.00;101605.84;5286186;28;20029;-74
2022/12/05 04:03:01;;;;;;;52.45;36.45;;;;;;;1.80;100.00;101609.34;5285936;28;20110;-74
2022/12/05 04:05:44;;;;;;;58.42;36.65;;;;;;;1.80;100.00;101611.91;5285680;28;20093;-74
2022/12/05 04:08:24;;;;;;;55.05;35.08;;;;;;;1.82;100.00;101616.31;5286088;28;20037;-74
2022/12/05 04:11:06;;;;;;;59.40;36.45;;;;;;;1.82;100.00;101608.59;5286186;28;20448;-75
2022/12/05 04:13:42;;;;;;;58.50;35.53;;;;;;;1.84;100.00;101607.78;5285336;28;20117;-74
2022/12/05 04:19:22;;;;;;;52.45;34.28;;;;;;;1.86;100.00;101614.72;5286141;28;20066;-75
2022/12/05 04:21:55;;;;;;;51.58;36.22;;;;;;;1.90;100.00;101618.25;5285754;28;20021;-74
2022/12/05 04:27:47;;;;;;;58.17;36.55;;;;;;;1.92;100.00;101616.66;5285412;28;20045;-74
2022/12/05 04:30:25;;;;;;;58.42;35.22;;;;;;;1.89;100.00;101619.09;5285565;28;20031;-74
2022/12/05 04:32:56;;;;;;;57.97;36.20;;;;;;;1.89;100.00;101619.97;5284907;28;20028;-74
2022/12/05 04:35:42;;;;;;;53.70;35.17;;;;;;;1.89;100.00;101619.97;5284949;28;20112;-74
2022/12/05 04:38:20;;;;;;;52.63;34.85;;;;;;;1.86;100.00;101622.44;5285372;28;20033;-74
2022/12/05 04:40:59;;;;;;;51.25;34.75;;;;;;;1.84;100.00;101621.50;5284863;28;20052;-74
2022/12/05 04:43:38;;;;;;;50.60;34.38;;;;;;;1.86;100.00;101627.56;5267680;28;20037;-74
2022/12/05 04:46:12;;;;;;;55.00;37.47;;;;;;;1.87;100.00;101629.34;5285246;28;20111;-74
2022/12/05 04:48:50;;;;;;;55.80;35.97;;;;;;;1.88;100.00;101631.06;5285072;28;20052;-75
2022/12/05 04:51:25;;;;;;;55.38;35.72;;;;;;;1.84;100.00;101630.94;5267292;28;20028;-74
2022/12/05 04:54:03;;;;;;;53.95;34.63;;;;;;;1.85;100.00;101625.81;5284736;28;20531;-74
2022/12/05 04:56:37;;;;;;;53.70;35.50;;;;;;;1.82;100.00;101629.16;5285152;28;20028;-74
2022/12/05 04:59:09;;;;;;;57.72;35.75;;;;;;;1.86;100.00;101625.00;5284630;28;20024;-75
2022/12/05 05:01:47;;;;;;;56.77;36.23;;;;;;;1.87;100.00;101634.47;5284488;28;20037;-74
2022/12/05 05:04:59;;;;;;;56.10;36.08;;;;;;;1.90;100.00;101628.56;5284298;28;20020;-75
2022/12/05 05:07:31;;;;;;;54.20;34.67;;;;;;;1.93;100.00;101628.66;5279612;28;20177;-75
2022/12/05 05:10:02;;;;;;;53.50;35.17;;;;;;;1.96;100.00;101628.78;5266637;28;20040;-74
2022/12/05 05:12:34;;;;;;;53.90;35.80;;;;;;;1.95;100.00;101624.47;5284401;28;20033;-75
2022/12/05 05:15:05;;;;;;;52.10;35.07;;;;;;;1.92;100.00;101629.50;5266969;28;20360;-75
2022/12/05 05:17:37;;;;;;;50.77;35.10;;;;;;;1.94;100.00;101633.00;5284451;28;20056;-75
2022/12/05 05:20:24;;;;;;;54.67;36.77;;;;;;;1.92;100.00;101634.66;5284528;28;20135;-75
2022/12/05 05:22:56;;;;;;;53.70;35.03;;;;;;;1.94;100.00;101641.56;5284095;28;20041;-73
2022/12/05 05:25:28;;;;;;;56.42;36.15;;;;;;;1.95;100.00;101639.91;5284231;28;20028;-73
2022/12/05 05:27:59;;;;;;;54.27;35.37;;;;;;;1.95;100.00;101640.78;5284640;28;20086;-73
2022/12/05 05:30:30;;;;;;;57.27;35.87;;;;;;;1.99;100.00;101639.19;5284680;28;20117;-73
2022/12/05 05:33:02;;;;;;;60.57;36.53;;;;;;;1.98;100.00;101634.84;5284416;28;20059;-73
2022/12/05 05:35:36;;;;;;;57.47;36.67;;;;;;;1.97;100.00;101638.25;5283730;28;20472;-73
2022/12/05 05:38:08;;;;;;;53.85;35.60;;;;;;;1.99;100.00;101634.03;5283572;28;20063;-73
2022/12/05 05:40:40;;;;;;;57.93;35.43;;;;;;;1.99;100.00;101636.59;5284181;28;20426;-73
2022/12/05 05:43:11;;;;;;;52.88;36.40;;;;;;;1.99;100.00;101631.47;5270351;28;20069;-72
2022/12/05 05:45:43;;;;;;;53.40;35.23;;;;;;;1.98;100.00;101635.75;5289490;28;20406;-73
2022/12/05 05:48:14;;;;;;;60.83;35.57;;;;;;;2.02;100.00;101636.72;5285095;28;20521;-72
2022/12/05 05:50:45;;;;;;;53.10;34.43;;;;;;;2.02;100.00;101636.72;5286936;28;20101;-72
2022/12/05 05:53:17;;;;;;;51.57;35.00;;;;;;;2.05;100.00;101641.97;5287431;28;20039;-73
2022/12/05 05:55:48;;;;;;;48.43;34.33;;;;;;;2.06;100.00;101642.84;5288415;28;20036;-73
2022/12/05 05:58:20;;;;;;;52.90;32.50;;;;;;;2.05;100.00;101646.25;5287537;28;20033;-72
2022/12/05 06:00:51;;;;;;;52.90;35.97;;;;;;;2.03;100.00;101647.88;5287073;28;20036;-72
2022/12/05 06:03:22;;;;;;;54.47;35.17;;;;;;;2.05;100.00;101647.13;5286928;28;20057;-73
2022/12/05 06:05:59;;;;;;;47.47;32.63;;;;;;;2.06;100.00;101651.44;5286369;28;20025;-73
2022/12/05 06:08:32;;;;;;;50.80;32.22;;;;;;;2.06;100.00;101653.13;5287016;28;20036;-72
2022/12/05 06:11:05;;;;;;;48.05;32.83;;;;;;;2.11;100.00;101654.16;5286943;28;20066;-74
2022/12/05 06:13:37;;;;;;;47.70;32.70;;;;;;;2.08;100.00;101652.38;5285979;28;20177;-73
2022/12/05 06:16:11;;;;;;;46.60;32.83;;;;;;;2.05;100.00;101657.41;5285928;28;20024;-73
2022/12/05 06:18:42;;;;;;;55.17;34.80;;;;;;;2.06;100.00;101648.88;5285639;28;20779;-73
2022/12/05 06:21:14;;;;;;;48.80;33.90;;;;;;;2.08;100.00;101647.22;5285244;28;20111;-73
2022/12/05 06:23:46;;;;;;;52.67;33.07;;;;;;;2.10;100.00;101655.88;5284148;28;20032;-73
2022/12/05 06:26:20;;;;;;;53.00;33.53;;;;;;;2.09;100.00;101661.81;5284571;28;20024;-73
2022/12/05 06:28:52;;;;;;;52.85;34.70;;;;;;;2.07;100.00;101662.59;5283477;28;20067;-73
2022/12/05 06:31:29;;;;;;;55.25;35.60;;;;;;;2.07;100.00;101663.47;5283758;28;20115;-73
2022/12/05 06:34:02;;;;;;;55.50;34.05;;;;;;;2.12;100.00;101655.94;5283971;28;20067;-73
2022/12/05 06:36:33;;;;;;;;;;;;;;;2.17;100.00;101662.09;5284507;28;20039;-73
2022/12/05 06:39:05;;;;;;;50.65;33.55;;;;;;;2.17;100.00;101660.44;5283656;28;20317;-72
2022/12/05 06:41:36;;;;;;;53.77;33.97;;;;;;;2.13;100.00;101655.97;5283538;28;20449;-73
2022/12/05 06:44:08;;;;;;;59.43;35.10;;;;;;;2.13;100.00;101661.13;5282930;28;20479;-73
2022/12/05 06:46:39;;;;;;;51.67;34.43;;;;;;;2.13;100.00;101660.25;5283149;28;20051;-73
2022/12/05 06:49:11;;;;;;;47.43;31.00;;;;;;;2.11;100.00;101659.31;5261001;28;20460;-74
2022/12/05 06:51:43;;;;;;;53.47;34.37;;;;;;;2.16;100.00;101661.22;5262592;28;20033;-73
2022/12/05 06:54:14;;;;;;;53.83;35.00;;;;;;;2.17;100.00;101656.97;5262420;28;20029;-72
2022/12/05 06:56:45;;;;;;;50.37;33.10;;;;;;;2.16;100.00;101662.94;5262061;28;20037;-73
2022/12/05 06:59:17;;;;;;;46.30;32.70;;;;;;;2.20;100.00;101669.94;5265735;28;20053;-73
2022/12/05 07:01:48;;;;;;;57.83;33.77;;;;;;;2.13;100.00;101666.28;5266814;28;20453;-74
2022/12/05 07:04:24;;;;;;;51.33;31.97;;;;;;;2.16;100.00;101670.66;5266429;28;20129;-74
2022/12/05 07:06:56;;;;;;;47.97;32.97;;;;;;;2.19;100.00;101678.50;5266107;28;20040;-74
2022/12/05 07:09:50;;;;;;;46.40;32.00;;;;;;;2.18;100.00;101681.88;5266280;28;20381;-73
2022/12/05 07:12:21;;;;;;;45.97;31.17;;;;;;;2.17;100.00;101678.44;5266814;28;20037;-74
2022/12/05 07:14:52;;;;;;;47.33;31.53;;;;;;;2.17;100.00;101688.72;5248478;28;20103;-74
2022/12/05 07:17:24;;;;;;;45.10;30.93;;;;;;;2.22;100.00;101691.44;5266090;28;20108;-74
2022/12/05 07:19:55;;;;;;;44.30;30.33;;;;;;;2.22;100.00;101693.13;5265592;28;20033;-72
2022/12/05 07:22:26;;;;;;;43.93;29.87;;;;;;;2.25;100.00;101696.69;5266348;28;20033;-73
2022/12/05 07:24:58;;;;;;;45.40;30.20;;;;;;;2.27;100.00;101701.88;5266207;28;20495;-72
2022/12/05 07:27:29;;;;;;;46.53;30.73;;;;;;;2.24;100.00;101705.25;5265376;28;20040;-72
2022/12/05 07:30:01;;;;;;;43.57;29.57;;;;;;;2.31;100.00;101702.06;5264810;28;20055;-73
2022/12/05 07:32:33;;;;;;;42.97;29.17;;;;;;;2.25;100.00;101704.41;5265343;28;20039;-73
2022/12/05 07:35:04;;;;;;;44.33;29.03;;;;;;;2.26;100.00;101708.75;5265595;28;20447;-73
2022/12/05 07:37:36;;;;;;;39.97;28.33;;;;;;;2.30;100.00;101715.78;5265392;28;20052;-73
2022/12/05 07:40:08;;;;;;;41.70;28.63;;;;;;;2.30;100.00;101713.19;5265600;28;20480;-73
2022/12/05 07:42:39;;;;;;;43.25;29.30;;;;;;;2.33;100.00;101707.25;5264073;28;20040;-72
2022/12/05 07:45:11;;;;;;;42.03;28.63;;;;;;;2.34;100.00;101703.88;5265059;28;20060;-72
2022/12/05 07:47:42;;;;;;;39.50;27.67;;;;;;;2.34;100.00;101703.88;5265469;28;20472;-73
2022/12/05 07:50:14;;;;;;;41.93;27.80;;;;;;;2.36;100.00;101715.97;5263832;28;20056;-73
2022/12/05 07:52:45;;;;;;;42.67;29.07;;;;;;;2.35;100.00;101713.31;5265490;28;20028;-73
2022/12/05 07:55:16;;;;;;;52.10;32.20;;;;;;;2.39;100.00;101714.34;5265185;28;20037;-73
2022/12/05 07:57:48;;;;;;;43.53;29.57;;;;;;;2.33;100.00;101714.97;5264853;28;20025;-72
2022/12/05 08:00:20;;;;;;;42.20;28.23;;;;;;;2.37;100.00;101716.84;5265515;28;20033;-72
2022/12/05 08:02:51;;;;;;;40.85;29.67;;;;;;;2.32;100.00;101721.84;5264090;28;20021;-71
2022/12/05 08:05:23;;;;;;;38.80;27.33;;;;;;;2.37;100.00;101724.56;5265497;28;20039;-72
2022/12/05 08:07:54;;;;;;;42.90;29.33;;;;;;;2.37;100.00;101719.44;5265674;28;20037;-73
2022/12/05 08:10:26;;;;;;;39.67;29.10;;;;;;;2.43;100.00;101724.81;5264639;28;20031;-73
2022/12/05 08:12:57;;;;;;;39.73;27.73;;;;;;;2.40;100.00;101724.69;5264623;28;20044;-73
2022/12/05 08:15:28;;;;;;;42.47;28.10;;;;;;;2.39;100.00;101734.94;5264693;28;20495;-72
2022/12/05 08:18:00;;;;;;;44.90;28.90;;;;;;;2.42;100.00;101741.06;5264881;28;20113;-72
2022/12/05 08:20:31;;;;;;;37.30;27.37;;;;;;;2.42;100.00;101743.63;5264793;28;20029;-72
2022/12/05 08:23:02;;;;;;;40.73;28.60;;;;;;;2.43;100.00;101742.81;5264599;28;20107;-72
2022/12/05 08:25:34;;;;;;;40.90;28.07;;;;;;;2.43;100.00;101737.66;5264482;28;20037;-72
2022/12/05 08:28:05;;;;;;;41.17;29.27;;;;;;;2.38;100.00;101746.91;5264582;28;20064;-72
2022/12/05 08:30:37;;;;;;;37.03;28.20;;;;;;;2.42;100.00;101746.19;5264540;28;20056;-72
2022/12/05 08:33:08;;;;;;;40.57;28.80;;;;;;;2.46;100.00;101744.59;5264275;28;20079;-73
2022/12/05 08:35:39;;;;;;;44.43;29.30;;;;;;;2.47;100.00;101749.81;5265208;28;20025;-73
2022/12/05 08:38:11;;;;;;;40.60;29.10;;;;;;;2.53;100.00;101759.47;5264097;28;20120;-72
2022/12/05 08:40:42;;;;;;;41.87;26.33;;;;;;;2.50;100.00;101755.06;5265452;28;20056;-72
2022/12/05 08:43:13;;;;;;;40.47;27.73;;;;;;;2.49;100.00;101761.03;5269058;28;20060;-73
2022/12/05 08:45:49;;;;;;;40.50;27.13;;;;;;;2.54;100.00;101756.03;5273729;28;20037;-73
2022/12/05 08:48:22;;;;;;;43.35;27.60;;;;;;;2.50;100.00;101755.06;5268284;28;20495;-73
2022/12/05 08:50:53;;;;;;;43.85;28.50;;;;;;;2.51;100.00;101749.09;5285758;28;20364;-73
2022/12/05 08:53:25;;;;;;;40.87;28.20;;;;;;;2.57;100.00;101748.44;5285111;28;20044;-73
2022/12/05 08:56:01;;;;;;;43.13;27.90;;;;;;;2.58;100.00;101754.44;5285006;28;20028;-73
2022/12/05 08:58:33;;;;;;;43.40;28.52;;;;;;;2.54;100.00;101756.03;5284154;28;20036;-73
2022/12/05 09:01:10;;;;;;;43.20;27.77;;;;;;;2.61;100.00;101762.28;5284300;28;20433;-73
2022/12/05 09:03:42;;;;;;;40.20;27.50;;;;;;;2.57;100.00;101768.16;5284312;28;20031;-73
2022/12/05 09:06:19;;;;;;;45.33;29.27;;;;;;;2.61;100.00;101765.75;5285884;28;20082;-73
2022/12/05 09:09:03;;;;;;;41.72;27.13;;;;;;;2.62;100.00;101771.78;5287378;28;20468;-73
2022/12/05 09:11:39;;;;;;;40.70;28.40;;;;;;;2.64;100.00;101772.69;5287413;28;20491;-73
2022/12/05 09:14:12;;;;;;;40.20;28.67;;;;;;;2.65;100.00;101774.44;5287509;28;20029;-74
2022/12/05 09:16:45;;;;;;;42.70;27.55;;;;;;;2.59;100.00;101775.09;5286465;28;20028;-74
2022/12/05 09:19:19;;;;;;;39.15;26.88;;;;;;;2.68;100.00;101774.56;5286896;28;20028;-73
2022/12/05 09:21:51;;;;;;;38.35;27.15;;;;;;;2.69;100.00;101774.63;5267687;28;20463;-73
2022/12/05 09:24:23;;;;;;;40.70;26.17;;;;;;;2.69;100.00;101784.06;5286199;28;20085;-73
2022/12/05 09:26:54;;;;;;;36.13;26.40;;;;;;;2.76;100.00;101786.00;5285751;28;20036;-72
2022/12/05 09:29:28;;;;;;;38.90;28.30;;;;;;;2.78;100.00;101786.06;5286259;28;20107;-74
2022/12/05 09:31:59;;;;;;;37.88;26.10;;;;;;;2.85;100.00;101788.91;5287210;28;20036;-72
2022/12/05 09:34:31;;;;;;;35.63;26.03;;;;;;;2.87;100.00;101789.84;5268295;28;20041;-73
2022/12/05 09:37:04;;;;;;;39.53;26.70;;;;;;;2.86;100.00;101793.22;5285328;28;20037;-74
2022/12/05 09:39:36;;;;;;;36.20;25.55;;;;;;;2.85;100.00;101791.50;5285118;28;20068;-74
2022/12/05 09:42:27;;;;;;;35.00;26.30;;;;;;;2.88;100.00;101798.44;5284835;28;20071;-73
2022/12/05 09:45:27;;;;;;;36.78;25.90;;;;;;;2.91;100.00;101802.00;5284141;28;20028;-73
2022/12/05 09:48:05;;;;;;;38.08;25.85;;;;;;;2.84;100.00;101801.72;5284630;28;20035;-74
2022/12/05 09:50:47;;;;;;;37.67;25.55;;;;;;;2.85;100.00;101799.22;5284621;28;20376;-74
2022/12/05 09:53:34;;;;;;;41.20;25.67;;;;;;;2.88;100.00;101798.44;5283947;28;20033;-75
2022/12/05 09:56:12;;;;;;;31.13;23.98;;;;;;;2.86;100.00;101808.69;5284245;28;20089;-74
2022/12/05 09:58:46;;;;;;;31.70;23.92;;;;;;;2.86;100.00;101807.81;5284402;28;20040;-74
2022/12/05 10:01:27;;;;;;;33.10;24.40;;;;;;;2.96;100.00;101803.84;5284285;28;20025;-74
2022/12/05 10:04:04;;;;;;;30.33;22.35;;;;;;;2.95;100.00;101803.00;5266251;28;20043;-75
2022/12/05 10:06:53;;;;;;;29.55;22.88;;;;;;;3.07;100.00;101799.94;5284888;28;20115;-75
2022/12/05 10:09:50;;;;;;;32.60;22.63;;;;;;;3.05;100.00;101804.19;5284048;28;20463;-75
2022/12/05 10:12:34;;;;;;;29.83;22.20;;;;;;;3.11;100.00;101806.97;5284873;28;20467;-75
2022/12/05 10:15:28;;;;;;;26.27;19.70;;;;;;;3.12;100.00;101805.25;5285434;28;20429;-74
2022/12/05 10:18:07;;;;;;;24.85;19.10;;;;;;;3.09;100.00;101803.44;5285307;28;20027;-74
2022/12/05 10:20:55;;;;;;;27.50;19.98;;;;;;;3.16;100.00;101794.25;5284840;28;20059;-75
2022/12/05 10:23:36;;;;;;;24.70;18.27;;;;;;;3.15;100.00;101793.34;5284517;28;20032;-74
2022/12/05 10:26:12;;;;;;;24.65;19.05;;;;;;;3.20;100.00;101796.94;5266850;28;20028;-74
2022/12/05 10:29:10;;;;;;;22.10;17.20;;;;;;;3.21;100.00;101795.28;5284365;28;20226;-73
2022/12/05 10:31:46;;;;;;;22.38;17.48;;;;;;;3.16;100.00;101797.69;5284676;28;20433;-74
2022/12/05 10:34:36;;;;;;;23.08;18.45;;;;;;;3.26;100.00;101802.31;5288158;28;20021;-73
2022/12/05 10:37:15;;;;;;;24.67;17.13;;;;;;;3.17;100.00;101802.03;5288377;28;20024;-74
2022/12/05 10:39:48;;;;;;;22.23;17.65;;;;;;;3.27;100.00;101798.06;5288333;28;20370;-73
2022/12/05 10:42:30;;;;;;;24.83;19.55;;;;;;;3.33;100.00;101805.09;5288146;28;20302;-73
2022/12/05 10:45:06;;;;;;;23.00;17.35;;;;;;;3.33;100.00;101805.09;5288509;28;20422;-73
2022/12/05 10:47:38;;;;;;;21.55;16.95;;;;;;;3.35;100.00;101806.03;5270038;28;20074;-74
2022/12/05 10:50:35;;;;;;;23.93;17.30;;;;;;;3.45;100.00;101803.81;5265284;28;20089;-74
2022/12/05 10:53:12;;;;;;;21.48;16.60;;;;;;;3.34;100.00;101812.88;5267235;28;20345;-74
2022/12/05 10:55:46;;;;;;;21.52;17.40;;;;;;;3.34;100.00;101810.31;5267766;28;20063;-75
2022/12/05 10:58:23;;;;;;;21.00;16.52;;;;;;;3.30;100.00;101805.91;5267108;28;20487;-74
2022/12/05 11:01:14;;;;;;;22.83;17.05;;;;;;;3.33;100.00;101803.41;5266360;28;20060;-74
2022/12/05 11:03:56;;;;;;;19.58;15.95;;;;;;;3.26;100.00;101806.59;5266530;28;20079;-75
2022/12/05 11:06:29;;;;;;;20.67;15.45;;;;;;;3.27;100.00;101803.22;5265847;28;20029;-74
2022/12/05 11:09:12;;;;;;;22.00;17.23;;;;;;;3.29;100.00;101799.84;5265758;28;20037;-74
2022/12/05 11:12:05;;;;;;;23.45;16.48;;;;;;;3.36;100.00;101797.47;5265591;28;20373;-75
2022/12/05 11:14:36;;;;;;;20.27;17.25;;;;;;;3.35;100.00;101794.03;5265496;28;20079;-74
2022/12/05 11:17:23;;;;;;;22.33;16.47;;;;;;;3.52;100.00;101793.72;5266981;28;20061;-74
2022/12/05 11:19:55;;;;;;;19.42;15.38;;;;;;;3.54;100.00;101792.03;5266209;28;20028;-74
2022/12/05 11:22:34;;;;;;;19.67;14.33;;;;;;;3.61;100.00;101792.28;5266241;28;20051;-74
2022/12/05 11:25:30;;;;;;;19.00;14.82;;;;;;;3.73;100.00;101790.94;5265620;28;20059;-74
2022/12/05 11:28:16;;;;;;;18.08;14.95;;;;;;;3.74;100.00;101790.13;5266308;28;20111;-74
2022/12/05 11:31:13;;;;;;;20.00;14.00;;;;;;;3.74;100.00;101792.69;5265655;28;20025;-75
2022/12/05 11:34:03;;;;;;;17.40;14.02;;;;;;;3.68;100.00;101789.91;5265392;28;20033;-74
2022/12/05 11:36:51;;;;;;;16.50;13.55;;;;;;;3.59;100.00;101787.91;5265576;28;20025;-75
2022/12/05 11:39:23;;;;;;;16.52;12.93;;;;;;;3.55;100.00;101783.50;5265546;28;20036;-74
2022/12/05 11:42:01;;;;;;;16.98;12.52;;;;;;;3.60;100.00;101790.53;5263952;28;20033;-75
2022/12/05 11:45:00;;;;;;;16.42;13.35;;;;;;;3.73;100.00;101785.78;5263543;28;20048;-74
2022/12/05 11:47:31;;;;;;;16.33;13.27;;;;;;;3.72;100.00;101784.00;5265768;28;20379;-74
2022/12/05 11:50:14;;;;;;;17.33;12.43;;;;;;;3.61;100.00;101786.28;5281418;28;20048;-74
2022/12/05 11:52:46;;;;;;;;;;;;;;;3.78;100.00;101786.78;5286327;28;20036;-75
2022/12/05 11:55:27;;;;;;;13.68;11.27;;;;;;;3.55;100.00;101784.34;5286054;28;19913;-75
2022/12/05 11:58:11;;;;;;;15.27;11.35;;;;;;;3.51;100.00;101782.53;5286258;28;20168;-75